EGKKLXGB

Guest
Details From EGKK - London Gatwick
To LXGB - Gibraltar
Flight Number -
Tags Generated
Created
Modified
Stats Distance 929 nm / 1,720 km
Max Altitude 0 ft / 0 m
Waypoints 6
Social Downloads 15
Likes 0
Share VATSIM

Download

Looking for another format? Having issues loading an existing format? Contact us
Advertisement - Login to hide

Notes

Generated

Route

EGKK NITEM SOMAN TEO BRIKE LXGB

ID Type Via Altitude Latitude Longitude Leg Dist Tot Dist Heading (true) Name
O EGKK APT - 0 ft / 0 m 51.14691˚ -0.21257˚ - 0 nm - -
NITEM FIX - 0 ft / 0 m 47.43028˚ -1.80639˚ 231 nm 231 nm 196° / 195° -
SOMAN FIX - 0 ft / 0 m 43.33654˚ -3.27174˚ 253 nm 485 nm 195° / 194° -
TEO NDB - 0 ft / 0 m 39.97278˚ -4.34608˚ 207 nm 692 nm 194° / 193° TOLEDO NDB
BRIKE FIX - 0 ft / 0 m 36.50478˚ -5.41645˚ 214 nm 907 nm 194° / 193° -
O LXGB APT - 0 ft / 0 m 36.15080˚ -5.35977˚ 21 nm 928 nm 173° / 173° -

Altitude Profile

Advertisement - Login to hide

Weather


0- 5 10 15 20 25 30 35+ Temperature / ° C

Clouds and Precipitation
Forecast for 2017-12-12 18:00 UTC. Updated an hour ago

Ground ~20,000 ft ~40,000 ft Winds

EGKK

Details ICAO EGKK (LGW)
Name London Gatwick
Region United Kingdom
Timezone Europe/London (UTC+0.0)
Stats Elevation 196 ft / 60 m (AMSL)
Location 51.148753° -0.192472°
Runways 2
Magnetic Variation 0.433° W

METAR

EGKK 121420Z 20004KT CAVOK 04/00 Q1009

Decode

TAF

TAF TAF EGKK 121101Z 1212/1318 23006KT CAVOK BECMG 1218/1221 BKN030 TEMPO 1221/1224 8000 RA BKN012 BECMG 1300/1303 BKN012 TEMPO 1300/1305 6000 RA BKN008 PROB30 TEMPO 1300/1305 19015G25KT 3000 RADZ BKN004 BECMG 1305/1308 BKN030 TEMPO 1310/1318 7000 SHRA BKN014 PROB30 TEMPO 1314/1317 26015G28KT 4000 +SHRA

Decode

Departure Runways

ID Width Length Bearing (true) Bearing (mag) Surface Threshold Offset Overrun Length
08L 148 ft / 45 m 8,377 ft / 2,553 m 77.69° 78.12° Asphalt 1,053 ft / 321 m 0 ft / 0 m
08R 148 ft / 45 m 10,341 ft / 3,152 m 77.59° 78.02° Asphalt 1,289 ft / 393 m 0 ft / 0 m
26L 148 ft / 45 m 10,341 ft / 3,152 m 257.63° 258.06° Asphalt 879 ft / 268 m 600 ft / 183 m
26R 148 ft / 45 m 8,377 ft / 2,553 m 257.71° 258.14° Asphalt 1,365 ft / 416 m 0 ft / 0 m

LXGB

Details ICAO LXGB (GIB)
Name Gibraltar
Region Gibralter
Timezone Europe/Gibraltar (UTC+1.0)
Stats Elevation 15 ft / 5 m (AMSL)
Location 36.151209° -5.349664°
Runways 1
Magnetic Variation 1.123° W

METAR

LXGB 121350Z 29005KT 9999 FEW025 17/00 Q1016 NOSIG

Decode

TAF

Not found

Destination Runways

ID Width Length Bearing (true) Bearing (mag) Surface Threshold Offset Overrun Length
27 151 ft / 46 m 5,992 ft / 1,826 m 267.56° 268.68° Asphalt 367 ft / 112 m 89 ft / 27 m
9 151 ft / 46 m 5,992 ft / 1,826 m 87.54° 88.66° Asphalt 299 ft / 91 m 52 ft / 16 m

Popular Alternatives